Time;durP1;ratioP1;P1;durP2;ratioP2;P2;SDS_P1;SDS_P2;PMS_P1;PMS_P2;Temp;Humidity;BMP_temperature;BMP_pressure;BME280_temperature;BME280_humidity;BME280_pressure;Samples;Min_cycle;Max_cycle;Signal;HPM_P1;HPM_P2
2022/02/20 00:00:39;0.00;0.00;0.62;0.00;0.00;0.62;1.83;0.90;;;21.30;25.10;;;;;;2249023;61;20344;-61
2022/02/20 00:03:23;0.00;0.00;0.62;0.00;0.00;0.62;2.03;1.20;;;21.30;25.10;;;;;;2249354;61;20372;-60
2022/02/20 00:06:10;0.00;0.00;0.62;0.00;0.00;0.62;1.80;1.00;;;21.30;25.70;;;;;;2249856;61;20361;-61
2022/02/20 00:08:55;0.00;0.00;0.62;0.00;0.00;0.62;1.40;0.87;;;21.30;25.40;;;;;;2249136;61;20376;-61
2022/02/20 00:11:40;0.00;0.00;0.62;0.00;0.00;0.62;2.03;1.07;;;21.30;25.20;;;;;;2249662;61;20365;-60
2022/02/20 00:14:24;0.00;0.00;0.62;0.00;0.00;0.62;1.30;0.80;;;21.30;25.20;;;;;;2249248;61;20748;-61
2022/02/20 00:17:09;0.00;0.00;0.62;0.00;0.00;0.62;1.40;0.90;;;21.30;25.20;;;;;;2249314;61;20384;-60
2022/02/20 00:19:54;0.00;0.00;0.62;0.00;0.00;0.62;1.80;0.90;;;21.30;25.20;;;;;;2249923;61;20384;-61
2022/02/20 00:22:41;0.00;0.00;0.62;0.00;0.00;0.62;2.07;1.10;;;21.30;25.20;;;;;;2248797;61;20388;-60
2022/02/20 00:25:31;0.00;0.00;0.62;0.00;0.00;0.62;2.17;1.20;;;21.30;25.20;;;;;;2249129;61;20352;-61
2022/02/20 00:28:15;0.00;0.00;0.62;0.00;0.00;0.62;1.63;0.83;;;21.30;25.70;;;;;;2249832;61;20361;-61
2022/02/20 00:31:01;0.00;0.00;0.62;0.00;0.00;0.62;1.40;0.70;;;21.30;25.20;;;;;;2249003;61;20440;-61
2022/02/20 00:33:45;0.00;0.00;0.62;0.00;0.00;0.62;1.70;0.83;;;21.30;25.20;;;;;;2249520;61;20428;-61
2022/02/20 00:36:30;0.00;0.00;0.62;0.00;0.00;0.62;1.50;0.80;;;21.30;25.20;;;;;;2248975;61;20388;-61
2022/02/20 00:39:15;0.00;0.00;0.62;0.00;0.00;0.62;1.80;1.10;;;21.30;25.20;;;;;;2249884;61;20384;-61
2022/02/20 00:42:03;0.00;0.00;0.62;0.00;0.00;0.62;1.30;0.77;;;21.30;25.20;;;;;;2250268;61;20461;-61
2022/02/20 00:44:48;0.00;0.00;0.62;0.00;0.00;0.62;1.40;0.80;;;21.30;25.20;;;;;;2249529;61;20590;-60
2022/02/20 00:47:32;0.00;0.00;0.62;0.00;0.00;0.62;1.77;0.93;;;21.30;25.20;;;;;;2249770;61;20578;-60
2022/02/20 00:50:17;0.00;0.00;0.62;0.00;0.00;0.62;1.40;0.83;;;21.30;25.20;;;;;;2250491;61;20752;-60
2022/02/20 00:53:02;0.00;0.00;0.62;0.00;0.00;0.62;3.10;0.70;;;21.30;25.20;;;;;;2249173;61;20435;-60
2022/02/20 00:55:48;0.00;0.00;0.62;0.00;0.00;0.62;1.50;0.80;;;21.30;25.20;;;;;;2250130;61;20388;-60
2022/02/20 00:58:33;0.00;0.00;0.62;0.00;0.00;0.62;1.77;0.90;;;21.30;25.20;;;;;;2249789;61;20476;-60
2022/02/20 01:01:18;0.00;0.00;0.62;0.00;0.00;0.62;1.47;0.80;;;21.30;25.30;;;;;;2249742;61;20560;-58
2022/02/20 01:04:03;0.00;0.00;0.62;0.00;0.00;0.62;1.50;0.90;;;21.30;25.30;;;;;;2250028;61;20412;-60
2022/02/20 01:06:48;0.00;0.00;0.62;0.00;0.00;0.62;1.53;0.70;;;21.30;25.30;;;;;;2248781;61;20447;-61
2022/02/20 01:09:33;0.00;0.00;0.62;0.00;0.00;0.62;1.50;0.70;;;21.30;25.30;;;;;;2250081;61;20368;-61
2022/02/20 01:12:19;0.00;0.00;0.62;0.00;0.00;0.62;1.40;0.80;;;21.30;25.20;;;;;;2249777;61;20648;-62
2022/02/20 01:15:06;0.00;0.00;0.62;0.00;0.00;0.62;1.20;0.60;;;21.30;25.20;;;;;;2249220;61;20802;-61
2022/02/20 01:17:50;0.00;0.00;0.62;0.00;0.00;0.62;1.67;0.90;;;21.20;25.00;;;;;;2246925;61;20397;-61
2022/02/20 01:20:35;0.00;0.00;0.62;0.00;0.00;0.62;1.20;0.70;;;21.20;24.70;;;;;;2249854;61;20370;-61
2022/02/20 01:23:20;0.00;0.00;0.62;0.00;0.00;0.62;1.50;0.80;;;21.20;24.50;;;;;;2249122;61;20763;-61
2022/02/20 01:26:05;0.00;0.00;0.62;0.00;0.00;0.62;1.27;0.80;;;21.10;24.40;;;;;;2250299;61;20567;-61
2022/02/20 01:28:51;0.00;0.00;0.62;0.00;0.00;0.62;1.20;0.80;;;21.00;24.40;;;;;;2249148;61;20640;-61
2022/02/20 01:31:36;0.00;0.00;0.62;0.00;0.00;0.62;1.40;0.80;;;21.00;24.40;;;;;;2249832;61;20373;-61
2022/02/20 01:34:22;0.00;0.00;0.62;0.00;0.00;0.62;1.60;0.73;;;20.90;24.40;;;;;;2249961;61;20407;-61
2022/02/20 01:37:06;0.00;0.00;0.62;0.00;0.00;0.62;1.30;0.73;;;20.90;24.40;;;;;;2248725;61;20803;-61
2022/02/20 01:39:51;0.00;0.00;0.62;0.00;0.00;0.62;1.20;0.60;;;20.80;24.30;;;;;;2249489;61;20396;-61
2022/02/20 01:42:40;0.00;0.00;0.62;0.00;0.00;0.62;1.30;0.70;;;20.80;24.30;;;;;;2249575;61;20736;-60
2022/02/20 01:45:28;0.00;0.00;0.62;0.00;0.00;0.62;1.20;0.67;;;20.70;24.30;;;;;;2249195;61;20825;-61
2022/02/20 01:48:12;0.00;0.00;0.62;0.00;0.00;0.62;1.20;0.70;;;20.60;24.30;;;;;;2249476;61;20349;-65
2022/02/20 01:51:01;0.00;0.00;0.62;0.00;0.00;0.62;1.30;0.73;;;20.60;24.30;;;;;;2248768;61;20385;-61
2022/02/20 01:53:46;0.00;0.00;0.62;0.00;0.00;0.62;1.50;0.73;;;20.50;24.30;;;;;;2249822;61;20384;-61
2022/02/20 01:56:30;0.00;0.00;0.62;0.00;0.00;0.62;1.43;0.87;;;20.50;24.40;;;;;;2249669;61;20642;-61
2022/02/20 01:59:28;0.00;0.00;0.62;0.00;0.00;0.62;1.53;0.70;;;20.50;24.50;;;;;;2248868;61;20729;-61
2022/02/20 02:02:19;0.00;0.00;0.62;0.00;0.00;0.62;1.30;0.73;;;20.40;24.50;;;;;;2249577;61;20360;-61
2022/02/20 02:05:12;0.00;0.00;0.62;0.00;0.00;0.62;1.50;0.90;;;20.40;24.50;;;;;;2246644;61;20373;-61
2022/02/20 02:08:01;0.00;0.00;0.62;0.00;0.00;0.62;1.40;0.80;;;20.40;24.60;;;;;;2249069;61;20377;-61
2022/02/20 02:11:02;0.00;0.00;0.62;0.00;0.00;0.62;1.20;0.70;;;20.30;24.60;;;;;;2249995;61;20348;-60
2022/02/20 02:14:00;0.00;0.00;0.62;0.00;0.00;0.62;1.50;0.93;;;20.30;24.60;;;;;;2248610;61;20456;-60
2022/02/20 02:17:03;0.00;0.00;0.62;0.00;0.00;0.62;2.30;1.00;;;20.30;24.70;;;;;;2249197;61;20516;-60
2022/02/20 02:20:10;0.00;0.00;0.62;0.00;0.00;0.62;1.60;0.80;;;20.30;24.70;;;;;;2249393;61;20610;-62
2022/02/20 02:23:19;0.00;0.00;0.62;0.00;0.00;0.62;1.73;1.27;;;20.20;24.70;;;;;;2249292;61;20645;-62
2022/02/20 02:26:27;0.00;0.00;0.62;0.00;0.00;0.62;1.33;0.83;;;20.20;24.70;;;;;;2249660;61;20400;-61
2022/02/20 02:29:28;0.00;0.00;0.62;0.00;0.00;0.62;2.00;1.03;;;20.10;24.70;;;;;;2248606;61;20360;-62
2022/02/20 02:32:15;0.00;0.00;0.62;0.00;0.00;0.62;1.97;1.00;;;20.00;24.80;;;;;;2249402;61;20365;-61
2022/02/20 02:35:00;0.00;0.00;0.62;0.00;0.00;0.62;2.30;1.13;;;20.00;24.80;;;;;;2249360;61;20484;-61
2022/02/20 02:37:45;0.00;0.00;0.62;0.00;0.00;0.62;1.57;1.00;;;20.00;24.90;;;;;;2249090;61;20361;-61
2022/02/20 02:40:33;0.00;0.00;0.62;0.00;0.00;0.62;1.40;0.90;;;19.90;24.90;;;;;;2250069;61;20441;-61
2022/02/20 02:43:17;0.00;0.00;0.62;0.00;0.00;0.62;1.80;1.07;;;19.90;24.90;;;;;;2248312;61;20424;-62
2022/02/20 02:46:03;0.00;0.00;0.62;0.00;0.00;0.62;2.60;1.37;;;19.90;25.00;;;;;;2249615;61;20365;-61
2022/02/20 02:48:48;0.00;0.00;0.62;0.00;0.00;0.62;2.37;1.20;;;19.80;25.00;;;;;;2249975;61;20598;-61
2022/02/20 02:51:35;0.00;0.00;0.62;0.00;0.00;0.62;2.93;1.17;;;19.80;25.00;;;;;;2248338;61;20356;-61
2022/02/20 02:54:22;0.00;0.00;0.62;0.00;0.00;0.62;1.40;0.90;;;19.80;25.10;;;;;;2249481;61;20397;-61
2022/02/20 02:57:09;0.00;0.00;0.62;0.00;0.00;0.62;1.80;1.20;;;19.70;25.10;;;;;;2248779;61;20467;-61
2022/02/20 02:59:54;0.00;0.00;0.62;0.00;0.00;0.62;1.80;1.17;;;19.70;25.20;;;;;;2248932;61;20466;-61
2022/02/20 03:02:39;0.00;0.00;0.62;0.00;0.00;0.62;1.87;1.33;;;19.70;25.20;;;;;;2249474;61;20728;-61
2022/02/20 03:05:24;0.00;0.00;0.62;0.00;0.00;0.62;2.40;1.43;;;19.70;25.30;;;;;;2248347;61;20397;-62
2022/02/20 03:08:09;0.00;0.00;0.62;0.00;0.00;0.62;3.10;1.30;;;19.60;25.30;;;;;;2249528;61;20741;-62
2022/02/20 03:10:54;0.00;0.00;0.62;0.00;0.00;0.62;1.30;0.97;;;19.60;25.40;;;;;;2249534;61;20368;-62
2022/02/20 03:13:40;0.00;0.00;0.62;0.00;0.00;0.62;1.73;1.17;;;19.60;25.40;;;;;;2248438;61;20760;-61
2022/02/20 03:16:29;0.00;0.00;0.62;0.00;0.00;0.62;2.77;1.23;;;19.50;25.40;;;;;;2249170;61;20404;-61
2022/02/20 03:19:14;0.00;0.00;0.62;0.00;0.00;0.62;1.50;1.00;;;19.50;25.40;;;;;;2249101;61;20416;-61
2022/02/20 03:21:58;0.00;0.00;0.62;0.00;0.00;0.62;4.90;1.57;;;19.50;25.50;;;;;;2248656;61;20405;-61
2022/02/20 03:24:43;0.00;0.00;0.62;0.00;0.00;0.62;2.40;1.17;;;19.50;25.50;;;;;;2249845;61;20400;-61
2022/02/20 03:27:27;0.00;0.00;0.62;0.00;0.00;0.62;1.40;0.90;;;19.50;25.50;;;;;;2248322;61;20360;-61
2022/02/20 03:30:17;0.00;0.00;0.62;0.00;0.00;0.62;2.50;1.10;;;19.50;25.60;;;;;;2249130;61;20724;-61
2022/02/20 03:33:06;0.00;0.00;0.62;0.00;0.00;0.62;4.83;1.10;;;19.40;25.50;;;;;;2249730;61;20472;-61
2022/02/20 03:35:51;0.00;0.00;0.62;0.00;0.00;0.62;3.77;1.33;;;19.40;25.60;;;;;;2248845;61;20493;-61
2022/02/20 03:38:37;0.00;0.00;0.62;0.00;0.00;0.62;2.47;0.90;;;19.40;25.60;;;;;;2249260;61;20748;-61
2022/02/20 03:41:21;0.00;0.00;0.62;0.00;0.00;0.62;1.50;0.80;;;19.40;25.70;;;;;;2245632;61;20360;-61
2022/02/20 03:44:07;0.00;0.00;0.62;0.00;0.00;0.62;1.53;1.00;;;19.40;25.70;;;;;;2246054;61;20508;-61
2022/02/20 03:47:09;0.00;0.00;0.62;0.00;0.00;0.62;2.47;1.00;;;19.40;25.70;;;;;;2249338;61;20360;-61
2022/02/20 03:49:54;0.00;0.00;0.62;0.00;0.00;0.62;1.80;1.20;;;19.40;25.70;;;;;;2248811;61;20436;-61
2022/02/20 03:52:51;0.00;0.00;0.62;0.00;0.00;0.62;1.50;0.90;;;19.30;25.70;;;;;;2248857;61;21146;-61
2022/02/20 03:55:41;0.00;0.00;0.62;0.00;0.00;0.62;1.60;0.90;;;19.40;25.80;;;;;;2249381;61;20388;-61
2022/02/20 03:58:26;0.00;0.00;0.62;0.00;0.00;0.62;1.67;1.07;;;19.30;25.70;;;;;;2246106;61;20389;-62
2022/02/20 04:01:12;0.00;0.00;0.62;0.00;0.00;0.62;1.50;0.80;;;19.30;25.80;;;;;;2249328;61;20399;-61
2022/02/20 04:04:05;0.00;0.00;0.62;0.00;0.00;0.62;2.03;1.00;;;19.30;25.80;;;;;;2248665;61;20451;-61
2022/02/20 04:06:51;0.00;0.00;0.62;0.00;0.00;0.62;2.00;1.20;;;19.30;25.80;;;;;;2249218;61;20453;-61
2022/02/20 04:09:36;0.00;0.00;0.62;0.00;0.00;0.62;1.50;1.13;;;19.30;25.80;;;;;;2249239;61;20767;-61
2022/02/20 04:12:29;0.00;0.00;0.62;0.00;0.00;0.62;1.63;1.20;;;19.30;25.90;;;;;;2248677;61;20417;-61
2022/02/20 04:15:16;0.00;0.00;0.62;0.00;0.00;0.62;1.63;0.90;;;19.30;26.40;;;;;;2250073;61;20360;-61
2022/02/20 04:18:01;0.00;0.00;0.62;0.00;0.00;0.62;1.70;1.00;;;19.20;25.90;;;;;;2250066;61;20353;-61
2022/02/20 04:20:47;0.00;0.00;0.62;0.00;0.00;0.62;1.80;1.10;;;19.20;25.90;;;;;;2249574;61;20360;-61
2022/02/20 04:23:32;0.00;0.00;0.62;0.00;0.00;0.62;1.70;1.17;;;19.20;25.80;;;;;;2249729;61;20497;-60
2022/02/20 04:26:19;0.00;0.00;0.62;0.00;0.00;0.62;1.53;1.10;;;19.20;25.90;;;;;;2249370;61;20404;-61
2022/02/20 04:29:05;0.00;0.00;0.62;0.00;0.00;0.62;1.57;1.30;;;19.20;25.90;;;;;;2249994;61;20712;-61
2022/02/20 04:31:51;0.00;0.00;0.62;0.00;0.00;0.62;2.10;1.10;;;19.20;26.00;;;;;;2249873;61;20719;-61
2022/02/20 04:34:36;0.00;0.00;0.62;0.00;0.00;0.62;1.60;1.23;;;19.20;26.00;;;;;;2248931;61;20716;-61
2022/02/20 04:37:23;0.00;0.00;0.62;0.00;0.00;0.62;1.60;1.00;;;19.30;26.10;;;;;;2249512;61;20408;-61
2022/02/20 04:40:10;0.00;0.00;0.62;0.00;0.00;0.62;1.70;1.27;;;19.20;25.90;;;;;;2250033;61;20369;-61
2022/02/20 04:43:03;0.00;0.00;0.62;0.00;0.00;0.62;2.40;1.10;;;19.20;25.90;;;;;;2249137;61;20789;-61
2022/02/20 04:45:48;0.00;0.00;0.62;0.00;0.00;0.62;1.97;1.00;;;19.30;25.90;;;;;;2249922;61;20380;-61
2022/02/20 04:48:36;0.00;0.00;0.62;0.00;0.00;0.62;2.70;1.13;;;19.30;25.90;;;;;;2248919;61;20720;-60
2022/02/20 04:51:26;0.00;0.00;0.62;0.00;0.00;0.62;1.53;1.10;;;19.30;25.90;;;;;;2249431;61;20427;-61
2022/02/20 04:54:12;0.00;0.00;0.62;0.00;0.00;0.62;1.70;1.10;;;19.30;25.90;;;;;;2249753;61;20388;-61
2022/02/20 04:56:57;0.00;0.00;0.62;0.00;0.00;0.62;1.47;0.90;;;19.30;25.90;;;;;;2246166;61;20483;-60
2022/02/20 04:59:41;0.00;0.00;0.62;0.00;0.00;0.62;1.57;1.07;;;19.30;25.90;;;;;;2249578;61;20396;-61
2022/02/20 05:02:26;0.00;0.00;0.62;0.00;0.00;0.62;1.80;0.90;;;19.30;25.90;;;;;;2250179;61;20595;-61
2022/02/20 05:05:12;0.00;0.00;0.62;0.00;0.00;0.62;1.90;1.10;;;19.30;25.80;;;;;;2249262;61;20388;-60
2022/02/20 05:07:57;0.00;0.00;0.62;0.00;0.00;0.62;1.73;1.20;;;19.30;25.80;;;;;;2249896;61;20448;-61
2022/02/20 05:10:42;0.00;0.00;0.62;0.00;0.00;0.62;2.00;1.50;;;19.40;25.90;;;;;;2249179;61;20365;-60
2022/02/20 05:13:29;0.00;0.00;0.62;0.00;0.00;0.62;1.40;1.10;;;19.40;26.40;;;;;;2249228;61;20596;-61
2022/02/20 05:16:13;0.00;0.00;0.62;0.00;0.00;0.62;2.70;1.40;;;19.40;25.80;;;;;;2249878;61;20435;-60
2022/02/20 05:19:00;0.00;0.00;0.62;0.00;0.00;0.62;2.20;1.30;;;19.40;25.90;;;;;;2248814;61;20614;-60
2022/02/20 05:21:44;0.00;0.00;0.62;0.00;0.00;0.62;1.77;1.30;;;19.40;25.80;;;;;;2249387;61;20596;-61
2022/02/20 05:24:29;0.00;0.00;0.62;0.00;0.00;0.62;2.10;1.40;;;19.40;25.80;;;;;;2249701;61;20357;-60
2022/02/20 05:27:15;0.00;0.00;0.62;0.00;0.00;0.62;2.07;1.20;;;19.40;25.80;;;;;;2246397;61;20361;-60
2022/02/20 05:30:00;0.00;0.00;0.62;0.00;0.00;0.62;1.60;1.20;;;19.40;25.80;;;;;;2249908;61;20372;-61
2022/02/20 05:32:49;0.00;0.00;0.62;0.00;0.00;0.62;1.40;1.00;;;19.40;25.80;;;;;;2248865;61;20427;-60
2022/02/20 05:35:40;0.00;0.00;0.62;0.00;0.00;0.62;1.87;1.10;;;19.40;25.80;;;;;;2246915;61;20473;-60
2022/02/20 05:38:25;0.00;0.00;0.62;0.00;0.00;0.62;1.50;1.30;;;19.40;25.80;;;;;;2249846;61;20440;-60
2022/02/20 05:41:12;0.00;0.00;0.62;0.00;0.00;0.62;2.20;1.40;;;19.40;25.80;;;;;;2248613;61;20728;-61
2022/02/20 05:43:59;0.00;0.00;0.62;0.00;0.00;0.62;1.67;1.20;;;19.40;25.80;;;;;;2249477;61;20416;-62
2022/02/20 05:46:50;0.00;0.00;0.62;0.00;0.00;0.62;1.50;1.10;;;19.40;25.80;;;;;;2249760;61;20465;-61
2022/02/20 05:49:36;0.00;0.00;0.62;0.00;0.00;0.62;1.80;1.23;;;19.40;25.70;;;;;;2249156;61;20597;-60
2022/02/20 05:52:21;0.00;0.00;0.62;0.00;0.00;0.62;2.13;1.10;;;19.40;26.30;;;;;;2249637;61;20416;-60
2022/02/20 05:55:07;0.00;0.00;0.62;0.00;0.00;0.62;1.63;1.00;;;19.40;25.80;;;;;;2248862;61;20717;-60
2022/02/20 05:57:56;0.00;0.00;0.62;0.00;0.00;0.62;1.80;1.23;;;19.40;25.70;;;;;;2249483;61;20752;-62
2022/02/20 06:01:05;0.00;0.00;0.62;0.00;0.00;0.62;1.87;1.37;;;19.50;25.80;;;;;;2249629;61;20396;-61
2022/02/20 06:03:50;0.00;0.00;0.62;0.00;0.00;0.62;1.60;1.27;;;19.50;25.80;;;;;;2248841;61;20860;-61
2022/02/20 06:07:03;0.00;0.00;0.62;0.00;0.00;0.62;1.47;1.00;;;19.50;25.80;;;;;;2248359;61;20437;-62
2022/02/20 06:10:26;0.00;0.00;0.62;0.00;0.00;0.62;1.80;1.10;;;19.50;25.80;;;;;;2240202;62;20596;-61
2022/02/20 06:13:12;0.00;0.00;0.62;0.00;0.00;0.62;1.50;1.10;;;19.50;25.70;;;;;;2240853;61;20382;-62
2022/02/20 06:16:18;0.00;0.00;0.62;0.00;0.00;0.62;1.87;1.40;;;19.50;25.80;;;;;;2249499;61;20388;-61
2022/02/20 06:19:18;0.00;0.00;0.62;0.00;0.00;0.62;1.70;1.27;;;19.50;25.80;;;;;;2249096;61;20600;-62
2022/02/20 06:22:20;0.00;0.00;0.62;0.00;0.00;0.62;1.83;1.30;;;19.50;25.70;;;;;;2249386;61;20380;-62
2022/02/20 06:25:17;0.00;0.00;0.62;0.00;0.00;0.62;1.90;1.50;;;19.50;25.70;;;;;;2249046;61;20439;-62
2022/02/20 06:28:07;0.00;0.00;0.62;0.00;0.00;0.62;2.00;1.70;;;19.40;25.60;;;;;;2249324;61;20444;-62
2022/02/20 06:30:52;0.00;0.00;0.62;0.00;0.00;0.62;1.70;1.30;;;19.40;25.60;;;;;;2249579;61;20436;-59
2022/02/20 06:33:47;0.00;0.00;0.62;0.00;0.00;0.62;2.00;1.30;;;19.40;25.60;;;;;;2248691;61;20416;-62
2022/02/20 06:36:32;0.00;0.00;0.62;0.00;0.00;0.62;1.80;1.43;;;19.40;25.60;;;;;;2249480;61;20396;-62
2022/02/20 06:39:17;0.00;0.00;0.62;0.00;0.00;0.62;1.60;1.20;;;19.40;25.60;;;;;;2249488;61;20717;-61
2022/02/20 06:42:04;0.00;0.00;0.62;0.00;0.00;0.62;1.60;1.00;;;19.40;25.70;;;;;;2249145;61;20364;-61
2022/02/20 06:44:48;0.00;0.00;0.62;0.00;0.00;0.62;2.03;1.30;;;19.40;25.60;;;;;;2249770;61;20424;-61
2022/02/20 06:47:52;0.00;0.00;0.62;0.00;0.00;0.62;1.40;0.90;;;19.40;25.60;;;;;;2249011;61;20403;-61
2022/02/20 06:50:54;0.00;0.00;0.62;0.00;0.00;0.62;1.50;1.00;;;19.40;25.60;;;;;;2249111;61;20765;-61
2022/02/20 06:53:52;0.00;0.00;0.62;0.00;0.00;0.62;1.60;1.07;;;19.40;25.60;;;;;;2248746;61;20541;-62
2022/02/20 06:56:42;0.00;0.00;0.62;0.00;0.00;0.62;1.60;0.90;;;19.40;25.60;;;;;;2249004;61;20384;-60
2022/02/20 06:59:27;0.00;0.00;0.62;0.00;0.00;0.62;1.90;1.20;;;19.40;25.60;;;;;;2249871;61;20368;-62
2022/02/20 07:02:11;0.00;0.00;0.62;0.00;0.00;0.62;1.50;1.17;;;19.40;25.60;;;;;;2248761;61;20389;-62
2022/02/20 07:04:56;0.00;0.00;0.62;0.00;0.00;0.62;1.63;1.50;;;19.40;25.60;;;;;;2249509;61;20360;-62
2022/02/20 07:07:42;0.00;0.00;0.62;0.00;0.00;0.62;2.63;1.40;;;19.40;25.60;;;;;;2249892;61;20364;-61
2022/02/20 07:10:27;0.00;0.00;0.62;0.00;0.00;0.62;3.63;1.50;;;19.40;25.50;;;;;;2249042;61;20802;-61
2022/02/20 07:13:11;0.00;0.00;0.62;0.00;0.00;0.62;2.83;1.60;;;19.40;25.40;;;;;;2249282;61;20616;-62
2022/02/20 07:15:56;0.00;0.00;0.62;0.00;0.00;0.62;2.80;1.60;;;19.30;25.20;;;;;;2249222;61;20368;-61
2022/02/20 07:18:40;0.00;0.00;0.62;0.00;0.00;0.62;4.20;1.63;;;19.30;25.20;;;;;;2249150;61;20745;-62
2022/02/20 07:21:25;0.00;0.00;0.62;0.00;0.00;0.62;3.50;1.80;;;19.20;25.10;;;;;;2249830;61;20740;-62
2022/02/20 07:24:13;0.00;0.00;0.62;0.00;0.00;0.62;4.33;1.70;;;19.20;25.60;;;;;;2248378;61;20385;-61
2022/02/20 07:26:58;0.00;0.00;0.62;0.00;0.00;0.62;2.63;1.90;;;19.10;24.90;;;;;;2249474;61;20364;-61
2022/02/20 07:29:42;0.00;0.00;0.62;0.00;0.00;0.62;1.93;1.50;;;19.10;24.90;;;;;;2249923;61;20472;-62
2022/02/20 07:32:27;0.00;0.00;0.62;0.00;0.00;0.62;2.40;1.40;;;19.00;24.90;;;;;;2248732;61;20428;-62
2022/02/20 07:35:11;0.00;0.00;0.62;0.00;0.00;0.62;3.13;1.40;;;19.00;24.90;;;;;;2249623;61;20756;-62
2022/02/20 07:37:56;0.00;0.00;0.62;0.00;0.00;0.62;1.60;1.30;;;18.90;24.80;;;;;;2249826;61;20400;-62
2022/02/20 07:40:42;0.00;0.00;0.62;0.00;0.00;0.62;1.90;1.17;;;18.90;24.80;;;;;;2249164;61;20404;-60
2022/02/20 07:43:27;0.00;0.00;0.62;0.00;0.00;0.62;1.50;1.20;;;18.80;24.70;;;;;;2249711;61;20408;-61
2022/02/20 07:46:11;0.00;0.00;0.62;0.00;0.00;0.62;2.80;1.37;;;18.70;24.70;;;;;;2248619;61;20400;-65
2022/02/20 07:48:57;0.00;0.00;0.62;0.00;0.00;0.62;1.70;0.90;;;18.70;24.80;;;;;;2249496;61;20473;-62
2022/02/20 07:51:42;0.00;0.00;0.62;0.00;0.00;0.62;1.93;1.17;;;18.60;24.80;;;;;;2249735;61;20392;-61
2022/02/20 07:54:26;0.00;0.00;0.62;0.00;0.00;0.62;3.47;1.27;;;18.60;24.80;;;;;;2248784;61;20368;-61
2022/02/20 07:57:14;0.00;0.00;0.62;0.00;0.00;0.62;2.30;2.00;;;18.60;24.80;;;;;;2249583;61;20457;-61
2022/02/20 07:59:59;0.00;0.00;0.62;0.00;0.00;0.62;2.40;1.27;;;18.50;24.80;;;;;;2249783;61;20378;-61
2022/02/20 08:02:45;0.00;0.00;0.62;0.00;0.00;0.62;2.07;1.50;;;18.50;24.80;;;;;;2249119;61;20658;-62
2022/02/20 08:05:29;0.00;0.00;0.62;0.00;0.00;0.62;2.03;1.30;;;18.50;24.90;;;;;;2249851;61;20400;-61
2022/02/20 08:08:14;0.00;0.00;0.62;0.00;0.00;0.62;3.07;1.60;;;18.40;24.90;;;;;;2248872;61;20381;-60
2022/02/20 08:11:00;0.00;0.00;0.62;0.00;0.00;0.62;1.83;1.10;;;18.40;24.90;;;;;;2249526;61;20368;-62
2022/02/20 08:13:46;0.00;0.00;0.62;0.00;0.00;0.62;2.00;1.20;;;18.30;24.80;;;;;;2249257;61;20388;-62
2022/02/20 08:16:31;0.00;0.00;0.62;0.00;0.00;0.62;2.13;1.30;;;18.30;24.90;;;;;;2248622;61;20496;-62
2022/02/20 08:19:15;0.00;0.00;0.62;0.00;0.00;0.62;1.60;1.10;;;18.30;25.00;;;;;;2249094;61;20748;-62
2022/02/20 08:22:00;0.00;0.00;0.62;0.00;0.00;0.62;4.20;1.70;;;18.30;25.10;;;;;;2249112;61;20357;-62
2022/02/20 08:24:45;0.00;0.00;0.62;0.00;0.00;0.62;3.07;1.70;;;18.20;25.10;;;;;;2249140;61;20408;-62
2022/02/20 08:27:33;0.00;0.00;0.62;0.00;0.00;0.62;3.50;1.30;;;18.20;25.10;;;;;;2249706;61;20369;-62
2022/02/20 08:30:19;0.00;0.00;0.62;0.00;0.00;0.62;1.73;1.30;;;18.20;25.20;;;;;;2248544;61;20388;-63
2022/02/20 08:33:07;0.00;0.00;0.62;0.00;0.00;0.62;3.13;1.23;;;18.20;25.30;;;;;;2248701;61;20776;-60
2022/02/20 08:35:51;0.00;0.00;0.62;0.00;0.00;0.62;2.70;1.43;;;18.20;25.30;;;;;;2249533;61;20396;-62
2022/02/20 08:38:36;0.00;0.00;0.62;0.00;0.00;0.62;2.17;1.20;;;18.20;25.30;;;;;;2248758;61;20365;-62
2022/02/20 08:41:21;0.00;0.00;0.62;0.00;0.00;0.62;2.70;1.30;;;18.20;25.30;;;;;;2249276;61;20720;-61
2022/02/20 08:44:06;0.00;0.00;0.62;0.00;0.00;0.62;2.27;1.33;;;18.20;25.30;;;;;;2249501;61;20413;-61
2022/02/20 08:46:52;0.00;0.00;0.62;0.00;0.00;0.62;3.17;1.53;;;18.20;25.30;;;;;;2248408;61;20361;-62
2022/02/20 08:49:37;0.00;0.00;0.62;0.00;0.00;0.62;2.53;1.50;;;18.20;25.30;;;;;;2249516;61;20469;-61
2022/02/20 08:52:23;0.00;0.00;0.62;0.00;0.00;0.62;2.27;1.40;;;18.20;25.30;;;;;;2248550;61;20388;-62
2022/02/20 08:55:09;0.00;0.00;0.62;0.00;0.00;0.62;2.30;1.50;;;18.20;25.30;;;;;;2247855;61;20393;-61
2022/02/20 08:57:54;0.00;0.00;0.62;0.00;0.00;0.62;1.80;1.50;;;18.30;25.40;;;;;;2249920;61;20401;-61
2022/02/20 09:00:38;0.00;0.00;0.62;0.00;0.00;0.62;2.77;1.73;;;18.30;25.40;;;;;;2249709;61;20364;-61
2022/02/20 09:03:24;0.00;0.00;0.62;0.00;0.00;0.62;1.97;1.30;;;18.30;25.40;;;;;;2249495;61;20408;-62
2022/02/20 09:06:09;0.00;0.00;0.62;0.00;0.00;0.62;1.83;1.33;;;18.30;25.40;;;;;;2250376;61;20369;-62
2022/02/20 09:08:54;0.00;0.00;0.62;0.00;0.00;0.62;1.73;1.00;;;18.40;25.50;;;;;;2249648;61;20484;-62
2022/02/20 09:11:39;0.00;0.00;0.62;0.00;0.00;0.62;1.60;1.07;;;18.40;25.50;;;;;;2249881;61;20401;-62
2022/02/20 09:14:24;0.00;0.00;0.62;0.00;0.00;0.62;2.47;1.53;;;18.40;25.50;;;;;;2249688;61;20392;-62
2022/02/20 09:17:09;0.00;0.00;0.62;0.00;0.00;0.62;2.00;0.90;;;18.50;25.50;;;;;;2249717;61;20383;-60
2022/02/20 09:19:55;0.00;0.00;0.62;0.00;0.00;0.62;3.53;1.27;;;18.50;25.50;;;;;;2250283;61;20404;-62
2022/02/20 09:22:42;0.00;0.00;0.62;0.00;0.00;0.62;1.67;1.00;;;18.50;25.50;;;;;;2249351;61;20473;-61
2022/02/20 09:25:26;0.00;0.00;0.62;0.00;0.00;0.62;2.60;0.90;;;18.60;25.60;;;;;;2249748;61;20377;-61
2022/02/20 09:28:11;0.00;0.00;0.62;0.00;0.00;0.62;1.50;1.07;;;18.60;25.60;;;;;;2249573;61;20392;-61
2022/02/20 09:30:57;0.00;0.00;0.62;0.00;0.00;0.62;1.50;1.00;;;18.60;25.60;;;;;;2249626;61;20380;-61
2022/02/20 09:33:42;0.00;0.00;0.62;0.00;0.00;0.62;3.20;1.20;;;18.70;25.70;;;;;;2249464;61;20387;-61
2022/02/20 09:36:27;0.00;0.00;0.62;0.00;0.00;0.62;1.53;1.03;;;18.70;25.70;;;;;;2249685;61;20384;-61
2022/02/20 09:39:12;0.00;0.00;0.62;0.00;0.00;0.62;1.50;1.00;;;18.70;25.70;;;;;;2249555;61;20364;-61
2022/02/20 09:41:57;0.00;0.00;0.62;0.00;0.00;0.62;1.67;1.10;;;18.80;25.80;;;;;;2249896;61;20360;-61
2022/02/20 09:44:43;0.00;0.00;0.62;0.00;0.00;0.62;2.03;0.90;;;18.80;25.80;;;;;;2249346;61;20408;-61
2022/02/20 09:47:30;0.00;0.00;0.62;0.00;0.00;0.62;1.43;1.00;;;18.80;25.80;;;;;;2249508;61;20437;-61
2022/02/20 09:50:15;0.00;0.00;0.62;0.00;0.00;0.62;1.40;0.90;;;18.90;25.90;;;;;;2250126;61;20720;-62
2022/02/20 09:53:01;0.00;0.00;0.62;0.00;0.00;0.62;2.87;0.90;;;18.90;25.80;;;;;;2249058;61;20424;-61
2022/02/20 09:55:47;0.00;0.00;0.62;0.00;0.00;0.62;1.60;1.20;;;18.90;25.80;;;;;;2249456;61;20373;-61
2022/02/20 09:58:32;0.00;0.00;0.62;0.00;0.00;0.62;1.50;1.00;;;19.00;25.90;;;;;;2248142;61;20373;-60
2022/02/20 10:01:17;0.00;0.00;0.62;0.00;0.00;0.62;1.63;0.90;;;19.00;25.90;;;;;;2249407;61;20360;-61
2022/02/20 10:04:12;0.00;0.00;0.62;0.00;0.00;0.62;1.40;0.80;;;19.00;25.90;;;;;;2249288;61;20605;-61
2022/02/20 10:06:57;0.00;0.00;0.62;0.00;0.00;0.62;2.23;1.10;;;19.00;25.90;;;;;;2248633;61;20357;-61
2022/02/20 10:09:43;0.00;0.00;0.62;0.00;0.00;0.62;2.53;1.00;;;19.10;26.00;;;;;;2249450;61;20364;-60
2022/02/20 10:12:29;0.00;0.00;0.62;0.00;0.00;0.62;1.80;1.10;;;19.10;26.00;;;;;;2249801;61;20752;-61
2022/02/20 10:15:29;0.00;0.00;0.62;0.00;0.00;0.62;2.40;1.10;;;19.10;26.00;;;;;;2249026;61;20573;-61
2022/02/20 10:18:22;0.00;0.00;0.62;0.00;0.00;0.62;1.90;1.20;;;19.20;26.20;;;;;;2248189;61;20780;-62
2022/02/20 10:21:36;0.00;0.00;0.62;0.00;0.00;0.62;1.77;0.97;;;19.20;26.20;;;;;;2242434;61;20392;-60
2022/02/20 10:25:00;0.00;0.00;0.62;0.00;0.00;0.62;1.50;1.00;;;19.20;26.20;;;;;;2247152;61;20620;-61
2022/02/20 10:28:07;0.00;0.00;0.62;0.00;0.00;0.62;2.50;1.10;;;19.20;26.20;;;;;;2248301;61;20493;-61
2022/02/20 10:31:04;0.00;0.00;0.62;0.00;0.00;0.62;2.40;1.33;;;19.30;26.30;;;;;;2249325;61;20427;-61
2022/02/20 10:34:06;0.00;0.00;0.62;0.00;0.00;0.62;1.63;1.00;;;19.30;26.20;;;;;;2249684;61;20383;-62
2022/02/20 10:36:56;0.00;0.00;0.62;0.00;0.00;0.62;2.17;1.20;;;19.30;26.10;;;;;;2249198;61;20733;-61
2022/02/20 10:39:43;0.00;0.00;0.62;0.00;0.00;0.62;1.93;1.13;;;19.40;26.20;;;;;;2246421;61;20369;-62
2022/02/20 10:42:36;0.00;0.00;0.62;0.00;0.00;0.62;2.60;1.20;;;19.40;26.20;;;;;;2249675;61;20381;-62
2022/02/20 10:45:33;0.00;0.00;0.62;0.00;0.00;0.62;1.90;1.07;;;19.40;26.20;;;;;;2249220;61;20737;-63
2022/02/20 10:48:19;0.00;0.00;0.62;0.00;0.00;0.62;3.27;1.20;;;19.40;26.20;;;;;;2249822;61;20356;-63
2022/02/20 10:51:04;0.00;0.00;0.62;0.00;0.00;0.62;1.63;1.13;;;19.50;26.30;;;;;;2249103;61;20404;-62
2022/02/20 10:53:51;0.00;0.00;0.62;0.00;0.00;0.62;2.33;1.43;;;19.50;26.30;;;;;;2249083;61;20792;-63
2022/02/20 10:56:41;0.00;0.00;0.62;0.00;0.00;0.62;1.40;1.00;;;19.50;26.30;;;;;;2249855;61;20419;-62
2022/02/20 10:59:48;0.00;0.00;0.62;0.00;0.00;0.62;2.70;1.50;;;19.50;26.30;;;;;;2249137;61;20449;-62
2022/02/20 11:02:33;0.00;0.00;0.62;0.00;0.00;0.62;1.60;0.90;;;19.60;26.30;;;;;;2249414;61;20392;-63